Watertown, CT (06779)

2:25 PM EDT on September 01, 2015 (GMT -0400)
High above beautiful downtown | | Change Station
CLOSE
Current Station
Personal Weather Station
Location: Oakville, CT
Elevation: 534 ft
Nearby Weather Stations

Elev 534 ft 41.58 °N, 73.10 °W | Updated 11 seconds ago

Partly Cloudy
Partly Cloudy
85.1 °F
Feels Like 88 °F
N
1.0
Wind Variable Wind from NNW
Gusts 1.0 mph

Today
High -- | Low -- °F
--% Chance of Precip.
Yesterday
High -- | Low -- °F
Precip. -- in
6:18 AM 7:25 PM
Waning Gibbous, 87% visible
Pressure 30.09 in
Visibility 10.0 miles
Clouds Scattered Clouds 5000 ft
Heat Index 88 °F
Dew Point 67 °F
Humidity 55%
Rainfall 0.00 in
Snow Depth Not available.
UV 7 out of 12
Pollen 9.50 out of 12
Air Quality Not available.
Flu Activity Not available.
METAR KOXC 011750Z 35005KT 10SM SCT050 28/16 A3009
Pressure 30.09 in
Visibility 10.0 miles
Clouds Scattered Clouds 5000 ft
Heat Index 88 °F
Dew Point 67 °F
Humidity 55%
Rainfall 0.00 in
Snow Depth Not available.
UV 7 out of 12
Pollen 9.50 out of 12
Air Quality Not available.
Flu Activity Not available.
METAR KOXC 011750Z 35005KT 10SM SCT050 28/16 A3009

10-Day Weather Forecast

×

Almanac

Astronomy

Sep. 01, 2015 Rise Set
Actual Time
Civil Twilight
Nautical Twilight
Astronomical Twilight
Moon
Length of Visible Light
Length of Day
Tomorrow will be .
, % of the Moon is Illuminated

Today's Extremes

State Highs State Lows

Community

WunderPhotos

Upload Photos

1,851,592 photos uploaded!

WunderBlogs® & News

Nearby

Air Quality

  Air Quality AQ Index Pollutant
Not available.

Snow Depth

Station Depth Elevation

Earthquake Activity

City Distance Mag. Time & Date
Minimum magnitude displayed is 2.5.

Coastal Water Temperatures

Place Temperature

Stations

Nearby Weather Stations

Station Location Temp. Windchill Dew Point Humidity Wind Precip. Elev Updated Type